Time;durP1;ratioP1;P1;durP2;ratioP2;P2;SDS_P1;SDS_P2;PMS_P1;PMS_P2;Temp;Humidity;BMP_temperature;BMP_pressure;BME280_temperature;BME280_humidity;BME280_pressure;Samples;Min_cycle;Max_cycle;Signal;HPM_P1;HPM_P2
2022/07/16 00:10:04;;;;;;;7.60;3.10;;;;;;;13.36;96.29;100467.48;681314;1274;139469;-83
2022/07/16 00:25:07;;;;;;;6.90;3.50;;;;;;;13.46;96.45;100471.20;681151;1274;139126;-82
2022/07/16 00:40:11;;;;;;;6.70;3.50;;;;;;;13.46;97.65;100468.90;681249;1274;139476;-83
2022/07/16 00:55:14;;;;;;;4.50;2.50;;;;;;;13.66;97.77;100457.29;681221;1274;140022;-82
2022/07/16 01:10:19;;;;;;;9.00;2.60;;;;;;;13.88;97.62;100456.70;681349;1274;139027;-82
2022/07/16 01:25:31;;;;;;;5.80;3.20;;;;;;;14.11;97.66;100444.89;680960;1274;139620;-82
2022/07/16 01:40:34;;;;;;;10.10;3.40;;;;;;;14.19;97.56;100437.22;681175;1274;138642;-81
2022/07/16 01:55:38;;;;;;;5.70;2.80;;;;;;;14.09;98.53;100429.41;681174;1274;139592;-82
2022/07/16 02:10:42;;;;;;;7.50;2.70;;;;;;;14.11;99.11;100426.56;681051;1274;140533;-82
2022/07/16 02:25:46;;;;;;;5.00;2.40;;;;;;;14.14;99.29;100418.11;681133;1274;140401;-82
2022/07/16 02:40:49;;;;;;;3.40;2.20;;;;;;;14.32;98.42;100408.91;681114;1274;139665;-82
2022/07/16 02:55:52;;;;;;;5.90;2.50;;;;;;;14.43;97.96;100397.49;681168;1274;140317;-83
2022/07/16 03:10:55;;;;;;;6.40;3.00;;;;;;;14.64;97.56;100393.58;681265;1274;139989;-82
2022/07/16 03:25:58;;;;;;;3.90;2.40;;;;;;;14.73;97.02;100390.41;681230;1274;140655;-82
2022/07/16 03:41:02;;;;;;;5.10;2.40;;;;;;;14.70;96.58;100390.35;681112;1273;140171;-83
2022/07/16 03:56:05;;;;;;;7.20;3.10;;;;;;;14.60;96.10;100384.38;681288;1274;138993;-83
2022/07/16 04:11:09;;;;;;;5.10;2.80;;;;;;;14.59;96.08;100378.98;681129;1273;140187;-83
2022/07/16 04:26:13;;;;;;;4.80;3.10;;;;;;;14.73;95.75;100372.69;681287;1274;140788;-82
2022/07/16 04:41:16;;;;;;;5.60;3.20;;;;;;;14.94;95.53;100365.89;681123;1274;139377;-83
2022/07/16 04:56:19;;;;;;;6.50;3.10;;;;;;;15.50;94.85;100352.22;681303;1272;138817;-82
2022/07/16 05:11:23;;;;;;;6.70;3.60;;;;;;;16.08;94.40;100340.48;681134;1273;140279;-83
2022/07/16 05:26:26;;;;;;;7.90;3.00;;;;;;;16.62;91.63;100335.09;681169;1274;140093;-83
2022/07/16 05:41:30;;;;;;;3.40;2.20;;;;;;;17.20;89.03;100330.59;680576;1274;140297;-83
2022/07/16 05:56:33;;;;;;;5.20;2.20;;;;;;;17.62;84.25;100319.20;680353;1275;138994;-85
2022/07/16 06:11:37;;;;;;;5.40;2.30;;;;;;;17.88;80.48;100311.58;681044;1272;140654;-83
2022/07/16 06:26:46;;;;;;;5.20;2.20;;;;;;;18.14;78.22;100296.85;680667;1275;138709;-82
2022/07/16 06:41:50;;;;;;;9.80;2.10;;;;;;;18.51;75.74;100286.11;680681;1274;140525;-82
2022/07/16 06:56:55;;;;;;;10.70;4.20;;;;;;;18.95;72.63;100275.91;680799;1272;420015;-84
2022/07/16 07:11:58;;;;;;;2.40;1.10;;;;;;;19.29;70.37;100269.73;680939;1274;140527;-83
2022/07/16 07:27:01;;;;;;;4.30;1.20;;;;;;;19.66;68.58;100260.77;680743;1274;139402;-83
2022/07/16 07:42:05;;;;;;;4.90;1.50;;;;;;;19.96;66.14;100240.89;680882;1274;139635;-82
2022/07/16 07:57:08;;;;;;;2.60;1.30;;;;;;;20.51;63.30;100230.23;681053;1273;138973;-83
2022/07/16 08:12:12;;;;;;;2.40;1.10;;;;;;;20.80;60.28;100225.70;680216;1275;139176;-82
2022/07/16 08:27:15;;;;;;;2.60;0.90;;;;;;;21.25;58.36;100217.14;680831;1274;138491;-81
2022/07/16 08:42:19;;;;;;;3.80;1.50;;;;;;;21.36;57.89;100195.45;681101;1274;138925;-82
2022/07/16 08:57:24;;;;;;;3.10;1.10;;;;;;;21.88;57.26;100176.55;681161;1274;139920;-82
2022/07/16 09:12:42;;;;;;;7.00;1.60;;;;;;;21.70;57.96;100174.55;680790;1274;138658;-83
2022/07/16 09:27:45;;;;;;;4.70;1.30;;;;;;;21.38;58.84;100162.31;680811;1274;139463;-85
2022/07/16 09:42:48;;;;;;;2.10;1.10;;;;;;;20.97;60.03;100152.36;681152;1274;138686;-85
2022/07/16 09:58:02;;;;;;;5.30;1.00;;;;;;;20.82;61.49;100139.58;681171;1274;139370;-84
2022/07/16 10:13:08;;;;;;;3.50;1.30;;;;;;;20.74;61.34;100122.04;680829;1272;138691;-83
2022/07/16 10:28:35;;;;;;;4.60;1.30;;;;;;;19.91;66.06;100119.55;680797;1274;138224;-84
2022/07/16 10:44:08;;;;;;;5.30;2.10;;;;;;;18.60;78.56;100158.02;680836;1274;140224;-92
2022/07/16 10:59:15;;;;;;;6.60;2.30;;;;;;;17.34;92.70;100165.36;681029;1274;138810;-91
2022/07/16 11:14:18;;;;;;;5.50;4.70;;;;;;;17.17;97.23;100153.02;681273;1274;139251;-92
2022/07/16 11:29:24;;;;;;;5.60;2.50;;;;;;;17.25;99.43;100145.36;681176;1273;140208;-93
2022/07/16 11:44:30;;;;;;;7.40;4.20;;;;;;;18.13;99.33;100133.42;681132;1273;140027;-91
2022/07/16 11:59:34;;;;;;;2.90;1.90;;;;;;;19.60;97.92;100116.77;680918;1274;140354;-89
2022/07/16 12:14:56;;;;;;;3.50;1.70;;;;;;;18.47;97.19;100083.52;680641;1274;138901;-92
2022/07/16 12:30:18;;;;;;;4.70;1.30;;;;;;;16.50;100.00;100110.34;679570;1274;139632;-95
2022/07/16 12:45:21;;;;;;;2.70;1.90;;;;;;;15.71;100.00;100099.67;681322;1272;140506;-91
2022/07/16 13:00:25;;;;;;;3.80;2.10;;;;;;;16.09;100.00;100084.38;681369;1274;140434;-91
2022/07/16 13:15:28;;;;;;;4.00;2.50;;;;;;;17.31;100.00;100083.88;681051;1274;140341;-90
2022/07/16 13:30:31;;;;;;;3.00;1.60;;;;;;;17.57;100.00;100096.09;680236;1275;139687;-89
2022/07/16 13:45:37;;;;;;;5.00;2.10;;;;;;;17.22;100.00;100119.69;681100;1274;138987;-90
2022/07/16 14:00:52;;;;;;;22.20;9.10;;;;;;;17.54;100.00;100134.06;680959;1274;139518;-88
2022/07/16 14:15:56;;;;;;;2.60;1.40;;;;;;;18.88;99.48;100124.17;680088;1274;139074;-85
2022/07/16 14:30:59;;;;;;;4.00;2.10;;;;;;;19.22;87.37;100121.68;680887;1274;138932;-82
2022/07/16 14:46:03;;;;;;;1.50;1.20;;;;;;;18.67;83.01;100126.11;681118;1274;139231;-82
2022/07/16 15:01:06;;;;;;;0.80;0.70;;;;;;;17.78;80.50;100168.89;680808;1274;139584;-82
2022/07/16 15:16:10;;;;;;;6.30;2.00;;;;;;;16.10;80.33;100216.19;681146;1274;138355;-85
2022/07/16 15:31:17;;;;;;;4.70;1.30;;;;;;;16.19;89.86;100198.30;680646;1274;138716;-87
2022/07/16 15:46:20;;;;;;;2.50;1.10;;;;;;;17.00;87.97;100212.85;680554;1274;139612;-85
2022/07/16 16:01:23;;;;;;;2.70;1.80;;;;;;;16.35;81.00;100232.62;681115;1274;139068;-82
2022/07/16 16:16:28;;;;;;;3.70;1.50;;;;;;;16.10;82.11;100240.63;681086;1273;138906;-82
2022/07/16 16:31:32;;;;;;;3.20;2.10;;;;;;;16.36;76.92;100244.94;681131;1272;139079;-81
2022/07/16 16:46:36;;;;;;;1.60;0.70;;;;;;;16.03;76.27;100256.52;681118;1274;138959;-86
2022/07/16 17:01:40;;;;;;;1.40;0.60;;;;;;;15.40;82.98;100281.79;680883;1274;138733;-87
2022/07/16 17:16:43;;;;;;;2.40;1.10;;;;;;;15.46;86.63;100293.96;680799;1274;140275;-84
2022/07/16 17:31:47;;;;;;;1.40;0.80;;;;;;;15.08;89.03;100309.27;680798;1274;138916;-84
2022/07/16 17:46:50;;;;;;;2.30;1.10;;;;;;;14.46;93.22;100329.27;680692;1273;138841;-84
2022/07/16 18:01:54;;;;;;;3.40;1.70;;;;;;;14.22;96.51;100343.27;680345;1274;23259;-84
2022/07/16 18:16:59;;;;;;;7.40;5.10;;;;;;;13.99;99.70;100359.81;680710;1272;139627;-84
2022/07/16 18:32:11;;;;;;;2.10;1.70;;;;;;;13.84;100.00;100378.73;680933;1274;138985;-83
2022/07/16 18:47:14;;;;;;;4.40;2.00;;;;;;;13.78;100.00;100386.11;680813;1273;426662;-83
2022/07/16 19:02:19;;;;;;;7.30;3.70;;;;;;;13.83;100.00;100406.52;681028;1272;139805;-83
2022/07/16 19:17:24;;;;;;;2.60;1.70;;;;;;;13.87;100.00;100422.53;680718;1274;140051;-82
2022/07/16 19:32:27;;;;;;;4.70;2.30;;;;;;;13.88;100.00;100443.70;680864;1274;139487;-83
2022/07/16 19:47:30;;;;;;;36.10;17.00;;;;;;;13.95;100.00;100468.84;680932;1274;141424;-82
2022/07/16 20:02:34;;;;;;;7.00;3.80;;;;;;;14.13;100.00;100481.27;680849;1271;139204;-82
2022/07/16 20:17:38;;;;;;;4.90;2.30;;;;;;;14.22;100.00;100496.27;681091;1274;139912;-82
2022/07/16 20:32:42;;;;;;;5.00;3.10;;;;;;;14.34;100.00;100519.68;681122;1274;138682;-82
2022/07/16 20:47:46;;;;;;;4.60;2.30;;;;;;;14.36;100.00;100535.44;681098;1273;139034;-82
2022/07/16 21:02:49;;;;;;;2.80;1.80;;;;;;;14.36;100.00;100553.61;681169;1273;139383;-81
2022/07/16 21:17:53;;;;;;;3.10;2.20;;;;;;;14.32;100.00;100580.66;681087;1274;139005;-81
2022/07/16 21:32:56;;;;;;;5.10;2.70;;;;;;;14.15;100.00;100602.64;681201;1274;139752;-81
2022/07/16 21:47:59;;;;;;;5.10;2.30;;;;;;;14.07;100.00;100618.20;680798;1276;139455;-81
2022/07/16 22:03:03;;;;;;;3.40;2.20;;;;;;;13.89;100.00;100638.91;680917;1276;138925;-81
2022/07/16 22:18:07;;;;;;;6.20;3.30;;;;;;;13.67;100.00;100660.81;681108;1273;139860;-81
2022/07/16 22:33:11;;;;;;;7.40;3.30;;;;;;;13.34;100.00;100662.88;680888;1274;140232;-81
2022/07/16 22:48:15;;;;;;;7.10;3.00;;;;;;;13.21;100.00;100674.73;680774;1274;138788;-81
2022/07/16 23:03:18;;;;;;;4.00;2.50;;;;;;;13.24;100.00;100696.30;680868;1274;140680;-81
2022/07/16 23:18:21;;;;;;;7.00;3.00;;;;;;;13.00;100.00;100710.41;680745;1274;140003;-81
2022/07/16 23:33:24;;;;;;;7.70;3.00;;;;;;;12.85;100.00;100720.02;681167;1274;139237;-81
2022/07/16 23:48:28;;;;;;;8.10;3.00;;;;;;;12.83;100.00;100728.61;681097;1274;138870;-81
